createdAt,value
2019-03-02T00:00:10.511Z,18.63
2019-03-02T00:02:39.064Z,18.23
2019-03-02T00:05:07.655Z,18.50
2019-03-02T00:07:36.094Z,18.57
2019-03-02T00:10:06.702Z,20.13
2019-03-02T00:12:36.665Z,17.40
2019-03-02T00:15:06.455Z,20.80
2019-03-02T00:17:36.547Z,17.97
2019-03-02T00:20:06.677Z,20.40
2019-03-02T00:22:35.120Z,19.27
2019-03-02T00:25:04.515Z,19.17
2019-03-02T00:27:32.952Z,19.27
2019-03-02T00:30:01.479Z,20.03
2019-03-02T00:32:29.992Z,21.10
2019-03-02T00:34:58.449Z,19.03
2019-03-02T00:37:29.628Z,20.00
2019-03-02T00:39:57.333Z,19.20
2019-03-02T00:42:25.871Z,20.17
2019-03-02T00:44:54.310Z,19.73
2019-03-02T00:47:22.901Z,19.53
2019-03-02T00:49:51.337Z,20.07
2019-03-02T00:52:20.453Z,20.33
2019-03-02T00:54:57.793Z,21.27
2019-03-02T00:57:20.142Z,20.30
2019-03-02T00:59:48.591Z,20.87
2019-03-02T01:02:17.061Z,20.27
2019-03-02T01:04:45.491Z,20.63
2019-03-02T01:07:14.033Z,20.33
2019-03-02T01:09:43.615Z,20.90
2019-03-02T01:12:13.011Z,19.90
2019-03-02T01:14:41.449Z,21.80
2019-03-02T01:17:09.977Z,21.37
2019-03-02T01:19:38.688Z,22.23
2019-03-02T01:22:07.220Z,21.40
2019-03-02T01:24:38.781Z,21.97
2019-03-02T01:27:05.858Z,23.43
2019-03-02T01:29:34.296Z,21.07
2019-03-02T01:32:02.820Z,21.80
2019-03-02T01:34:31.350Z,22.17
2019-03-02T01:36:59.944Z,22.73
2019-03-02T01:39:29.267Z,23.60
2019-03-02T01:41:58.616Z,23.03
2019-03-02T01:44:27.105Z,23.60
2019-03-02T01:46:55.536Z,22.63
2019-03-02T01:49:23.996Z,22.63
2019-03-02T01:51:54.659Z,23.80
2019-03-02T01:54:22.624Z,22.80
2019-03-02T01:56:51.243Z,23.10
2019-03-02T01:59:19.716Z,24.20
2019-03-02T02:01:48.148Z,23.93
2019-03-02T02:04:18.804Z,23.90
2019-03-02T02:06:46.832Z,23.67
2019-03-02T02:09:15.534Z,24.23
2019-03-02T02:11:44.513Z,25.40
2019-03-02T02:14:14.902Z,23.53
2019-03-02T02:16:43.210Z,24.30
2019-03-02T02:19:11.736Z,24.50
2019-03-02T02:21:40.168Z,25.40
2019-03-02T02:24:08.615Z,24.53
2019-03-02T02:26:37.056Z,24.67
2019-03-02T02:29:08.258Z,25.40
2019-03-02T02:31:44.345Z,25.23
2019-03-02T02:34:06.293Z,27.33
2019-03-02T02:36:34.805Z,26.33
2019-03-02T02:39:04.412Z,27.20
2019-03-02T02:41:32.923Z,27.97
2019-03-02T02:44:01.474Z,26.63
2019-03-02T02:46:32.521Z,28.10
2019-03-02T02:49:00.215Z,26.53
2019-03-02T02:51:28.754Z,28.47
2019-03-02T02:53:57.469Z,28.57
2019-03-02T02:56:25.928Z,29.13
2019-03-02T02:58:56.189Z,29.07
2019-03-02T03:01:33.177Z,27.83
2019-03-02T03:03:59.262Z,27.50
2019-03-02T03:06:28.602Z,29.23
2019-03-02T03:08:55.181Z,30.27
2019-03-02T03:11:23.707Z,28.33
2019-03-02T03:13:52.142Z,30.67
2019-03-02T03:16:20.606Z,29.43
2019-03-02T03:18:52.389Z,27.87
2019-03-02T03:21:27.236Z,27.33
2019-03-02T03:23:49.384Z,28.47
2019-03-02T03:26:17.836Z,29.03
2019-03-02T03:28:46.279Z,28.90
2019-03-02T03:31:23.159Z,29.80
2019-03-02T03:33:47.190Z,31.03
2019-03-02T03:36:15.148Z,30.57
2019-03-02T03:38:43.600Z,30.47
2019-03-02T03:41:12.127Z,30.87
2019-03-02T03:43:42.571Z,32.03
2019-03-02T03:46:10.792Z,29.93
2019-03-02T03:48:39.317Z,30.67
2019-03-02T03:51:07.773Z,28.20
2019-03-02T03:53:36.314Z,30.97
2019-03-02T03:56:05.605Z,30.27
2019-03-02T03:58:35.204Z,29.10
2019-03-02T04:01:04.887Z,30.90
2019-03-02T04:03:33.667Z,30.93
2019-03-02T04:06:02.131Z,30.63
2019-03-02T04:08:30.661Z,31.60
2019-03-02T04:11:00.314Z,31.50
2019-03-02T04:13:29.289Z,31.43
2019-03-02T04:15:57.801Z,30.90
2019-03-02T04:18:41.628Z,32.97
2019-03-02T04:21:10.130Z,31.57
2019-03-02T04:23:38.665Z,33.33
2019-03-02T04:26:07.097Z,30.37
2019-03-02T04:28:35.565Z,31.63
2019-03-02T04:31:04.534Z,32.13
2019-03-02T04:33:34.184Z,30.53
2019-03-02T04:36:09.669Z,30.70
2019-03-02T04:38:33.584Z,32.63
2019-03-02T04:41:04.081Z,31.67
2019-03-02T04:43:32.713Z,32.07
2019-03-02T04:46:01.158Z,32.17
2019-03-02T04:48:29.620Z,29.23
2019-03-02T04:50:59.612Z,30.63
2019-03-02T04:53:28.290Z,30.17
2019-03-02T04:55:56.736Z,30.60
2019-03-02T04:58:25.196Z,30.77
2019-03-02T05:00:53.640Z,32.03
2019-03-02T05:03:22.092Z,29.63
2019-03-02T05:05:50.523Z,31.00
2019-03-02T05:08:18.984Z,30.27
2019-03-02T05:10:47.424Z,30.83
2019-03-02T05:13:15.893Z,28.90
2019-03-02T05:15:44.327Z,30.03
2019-03-02T05:18:14.762Z,30.03
2019-03-02T05:20:42.954Z,28.93
2019-03-02T05:23:11.413Z,29.27
2019-03-02T05:25:39.940Z,28.30
2019-03-02T05:28:08.443Z,28.70
2019-03-02T05:30:36.888Z,28.50
2019-03-02T05:33:05.424Z,27.13
2019-03-02T05:35:33.853Z,29.53
2019-03-02T05:38:02.364Z,29.80
2019-03-02T05:40:31.600Z,28.10
2019-03-02T05:43:00.305Z,29.50
2019-03-02T05:45:28.769Z,28.90
2019-03-02T05:47:57.209Z,28.20
2019-03-02T05:50:26.533Z,28.43
2019-03-02T05:52:55.928Z,28.57
2019-03-02T05:55:24.373Z,28.13
2019-03-02T05:57:52.812Z,29.20
2019-03-02T06:00:23.139Z,29.50
2019-03-02T06:02:51.576Z,28.60
2019-03-02T06:05:20.031Z,28.93
2019-03-02T06:07:48.477Z,28.27
2019-03-02T06:10:16.937Z,28.03
2019-03-02T06:12:48.019Z,29.07
2019-03-02T06:15:16.282Z,29.80
2019-03-02T06:17:44.716Z,28.57
2019-03-02T06:20:13.729Z,30.40
2019-03-02T06:22:42.313Z,35.90
2019-03-02T06:25:20.469Z,30.43
2019-03-02T06:27:47.304Z,28.57
2019-03-02T06:30:16.876Z,29.40
2019-03-02T06:32:45.313Z,32.43
2019-03-02T06:35:14.011Z,29.70
2019-03-02T06:37:42.516Z,41.47
2019-03-02T06:40:15.921Z,31.90
2019-03-02T06:42:45.654Z,35.83
2019-03-02T06:45:17.603Z,26.03
2019-03-02T06:47:46.216Z,29.70
2019-03-02T06:50:16.014Z,27.80
2019-03-02T06:52:44.592Z,28.80
2019-03-02T06:55:14.636Z,28.40
2019-03-02T06:57:46.074Z,27.40
2019-03-02T07:00:18.240Z,27.87
2019-03-02T07:02:46.764Z,29.23
2019-03-02T07:05:15.342Z,28.70
2019-03-02T07:07:43.869Z,25.67
2019-03-02T07:10:17.686Z,26.63
2019-03-02T07:12:46.868Z,25.57
2019-03-02T07:15:15.847Z,24.93
2019-03-02T07:17:45.961Z,27.67
2019-03-02T07:20:16.585Z,24.90
2019-03-02T07:22:45.053Z,25.27
2019-03-02T07:25:14.732Z,25.67
2019-03-02T07:27:43.329Z,25.37
2019-03-02T07:30:12.600Z,24.73
2019-03-02T07:32:41.449Z,25.63
2019-03-02T07:35:10.566Z,26.00
2019-03-02T07:37:40.682Z,29.53
2019-03-02T07:40:13.360Z,25.20
2019-03-02T07:42:41.890Z,28.30
2019-03-02T07:45:13.477Z,23.60
2019-03-02T07:47:41.990Z,23.50
2019-03-02T07:50:11.480Z,24.47
2019-03-02T07:52:40.281Z,22.87
2019-03-02T07:55:14.660Z,24.73
2019-03-02T07:57:43.737Z,23.13
2019-03-02T08:00:20.157Z,23.47
2019-03-02T08:02:48.632Z,23.57
2019-03-02T08:05:17.517Z,23.23
2019-03-02T08:07:46.046Z,23.20
2019-03-02T08:10:14.574Z,23.60
2019-03-02T08:12:43.151Z,22.00
2019-03-02T08:15:20.124Z,22.50
2019-03-02T08:17:49.065Z,22.50
2019-03-02T08:20:20.712Z,22.23
2019-03-02T08:22:48.171Z,21.67
2019-03-02T08:25:16.773Z,21.93
2019-03-02T08:27:45.210Z,20.70
2019-03-02T08:30:23.789Z,22.20
2019-03-02T08:32:54.082Z,20.93
2019-03-02T08:35:22.501Z,21.50
2019-03-02T08:37:51.023Z,21.13
2019-03-02T08:40:23.289Z,19.53
2019-03-02T08:42:50.377Z,20.57
2019-03-02T08:45:19.894Z,21.50
2019-03-02T08:47:48.420Z,19.10
2019-03-02T08:50:18.815Z,19.70
2019-03-02T08:52:47.700Z,18.57
2019-03-02T08:55:22.156Z,20.63
2019-03-02T08:57:53.896Z,19.23
2019-03-02T09:00:27.424Z,18.27
2019-03-02T09:02:58.912Z,18.27
2019-03-02T09:05:42.783Z,17.83
2019-03-02T09:07:56.357Z,16.60
2019-03-02T09:10:24.865Z,17.03
2019-03-02T09:12:57.978Z,16.70
2019-03-02T09:15:30.181Z,18.67
2019-03-02T09:17:58.458Z,17.50
2019-03-02T09:20:26.915Z,19.37
2019-03-02T09:22:56.325Z,16.83
2019-03-02T09:25:27.877Z,15.40
2019-03-02T09:27:56.229Z,17.03
2019-03-02T09:30:24.737Z,16.43
2019-03-02T09:32:54.932Z,14.70
2019-03-02T09:35:23.452Z,15.53
2019-03-02T09:37:52.249Z,14.03
2019-03-02T09:40:24.301Z,13.57
2019-03-02T09:42:52.469Z,14.67
2019-03-02T09:45:21.051Z,14.60
2019-03-02T09:47:51.926Z,12.70
2019-03-02T09:50:21.724Z,13.60
2019-03-02T09:52:50.685Z,13.50
2019-03-02T09:55:20.232Z,13.10
2019-03-02T09:57:49.385Z,12.87
2019-03-02T10:00:26.114Z,12.87
2019-03-02T10:02:55.254Z,12.13
2019-03-02T10:05:26.061Z,12.50
2019-03-02T10:07:54.532Z,13.37
2019-03-02T10:10:25.228Z,12.23
2019-03-02T10:12:53.428Z,12.00
2019-03-02T10:15:29.483Z,12.60
2019-03-02T10:17:58.018Z,11.47
2019-03-02T10:20:26.531Z,11.20
2019-03-02T10:22:55.120Z,11.67
2019-03-02T10:25:26.508Z,11.07
2019-03-02T10:27:57.066Z,11.23
2019-03-02T10:30:26.160Z,9.40
2019-03-02T10:32:55.799Z,9.63
2019-03-02T10:35:25.245Z,9.87
2019-03-02T10:37:53.676Z,10.13
2019-03-02T10:40:23.311Z,9.67
2019-03-02T10:42:52.138Z,9.40
2019-03-02T10:45:21.864Z,10.20
2019-03-02T10:47:50.453Z,10.23
2019-03-02T10:50:24.949Z,9.13
2019-03-02T10:52:53.958Z,8.70
2019-03-02T10:55:23.697Z,9.10
2019-03-02T10:57:52.376Z,8.43
2019-03-02T11:00:29.750Z,8.80
2019-03-02T11:03:01.834Z,9.40
2019-03-02T11:05:48.898Z,8.10
2019-03-02T11:08:21.772Z,8.30
2019-03-02T11:11:05.920Z,8.17
2019-03-02T11:13:36.089Z,8.27
2019-03-02T11:16:06.804Z,7.83
2019-03-02T11:18:36.932Z,8.07
2019-03-02T11:21:23.252Z,7.50
2019-03-02T11:24:08.268Z,8.33
2019-03-02T11:26:56.891Z,7.60
2019-03-02T11:29:30.115Z,7.87
2019-03-02T11:32:00.471Z,8.40
2019-03-02T11:34:46.650Z,8.53
2019-03-02T11:37:25.637Z,7.63
2019-03-02T11:40:00.516Z,8.30
2019-03-02T11:42:30.647Z,6.97
2019-03-02T11:45:00.824Z,7.13
2019-03-02T11:47:46.900Z,7.60
2019-03-02T11:50:28.881Z,8.57
2019-03-02T11:53:01.677Z,6.97
2019-03-02T11:55:47.201Z,6.73
2019-03-02T11:58:23.128Z,6.30
2019-03-02T12:01:09.541Z,4.97
2019-03-02T12:03:43.022Z,5.87
2019-03-02T12:06:16.248Z,5.67
2019-03-02T12:08:54.859Z,6.87
2019-03-02T12:11:24.361Z,6.30
2019-03-02T12:14:10.210Z,4.90
2019-03-02T12:16:47.585Z,6.63
2019-03-02T12:19:20.733Z,6.17
2019-03-02T12:22:06.221Z,6.27
2019-03-02T12:24:36.401Z,5.90
2019-03-02T12:27:18.815Z,5.97
2019-03-02T12:29:50.875Z,6.17
2019-03-02T12:32:23.826Z,6.70
2019-03-02T12:35:05.447Z,5.77
2019-03-02T12:37:37.327Z,6.33
2019-03-02T12:40:10.409Z,5.10
2019-03-02T12:42:43.500Z,6.43
2019-03-02T12:45:16.829Z,5.60
2019-03-02T12:47:55.964Z,5.63
2019-03-02T12:50:28.098Z,5.17
2019-03-02T12:53:16.230Z,4.83
2019-03-02T12:55:56.820Z,5.47
2019-03-02T12:58:42.029Z,4.60
2019-03-02T13:01:27.511Z,4.27
2019-03-02T13:04:09.352Z,5.37
2019-03-02T13:06:41.016Z,4.83
2019-03-02T13:09:18.838Z,5.00
2019-03-02T13:11:48.924Z,6.00
2019-03-02T13:14:34.452Z,5.47
2019-03-02T13:17:10.707Z,5.37
2019-03-02T13:19:40.813Z,5.77
2019-03-02T13:22:13.444Z,4.90
2019-03-02T13:24:53.806Z,4.80
2019-03-02T13:27:27.420Z,5.47
2019-03-02T13:30:12.831Z,5.20
2019-03-02T13:32:57.942Z,4.33
2019-03-02T13:35:30.612Z,4.80
2019-03-02T13:38:00.698Z,4.53
2019-03-02T13:40:33.593Z,3.97
2019-03-02T13:43:19.117Z,5.27
2019-03-02T13:45:55.428Z,4.27
2019-03-02T13:48:40.682Z,4.30
2019-03-02T13:51:30.046Z,4.43
2019-03-02T13:54:02.079Z,4.40
2019-03-02T13:56:33.709Z,4.00
2019-03-02T13:59:03.788Z,3.30
2019-03-02T14:01:48.664Z,3.40
2019-03-02T14:04:28.225Z,3.43
2019-03-02T14:07:14.288Z,4.00
2019-03-02T14:09:44.376Z,3.20
2019-03-02T14:12:20.857Z,3.20
2019-03-02T14:14:54.053Z,7.63
2019-03-02T14:17:39.454Z,3.63
2019-03-02T14:20:15.957Z,2.83
2019-03-02T14:22:58.113Z,2.77
2019-03-02T14:25:28.361Z,2.77
2019-03-02T14:28:07.240Z,5.83
2019-03-02T14:30:46.441Z,2.27
2019-03-02T14:33:25.702Z,3.80
2019-03-02T14:35:57.448Z,6.63
2019-03-02T14:38:38.189Z,3.33
2019-03-02T14:41:28.190Z,6.43
2019-03-02T14:44:11.120Z,8.87
2019-03-02T14:46:41.201Z,2.37
2019-03-02T14:49:17.272Z,2.57
2019-03-02T14:51:47.354Z,2.37
2019-03-02T14:54:29.552Z,1.60
2019-03-02T14:56:59.623Z,2.10
2019-03-02T14:59:38.574Z,2.17
2019-03-02T15:02:16.599Z,1.80
2019-03-02T15:05:02.285Z,2.10
2019-03-02T15:07:34.948Z,1.87
2019-03-02T15:10:08.740Z,1.80
2019-03-02T15:12:44.759Z,2.00
2019-03-02T15:15:21.178Z,1.87
2019-03-02T15:18:28.268Z,1.83
2019-03-02T15:20:57.050Z,1.53
2019-03-02T15:26:21.283Z,1.67
2019-03-02T15:29:10.030Z,1.57
2019-03-02T15:31:48.634Z,1.90
2019-03-02T15:34:30.805Z,1.47
2019-03-02T15:37:12.748Z,1.50
2019-03-02T15:39:55.076Z,1.80
2019-03-02T15:42:25.172Z,1.40
2019-03-02T15:45:11.644Z,1.60
2019-03-02T15:47:41.740Z,1.80
2019-03-02T15:50:17.271Z,2.03
2019-03-02T15:52:48.250Z,1.60
2019-03-02T15:55:35.257Z,1.93
2019-03-02T15:58:14.555Z,1.90
2019-03-02T16:00:46.550Z,1.90
2019-03-02T16:03:22.245Z,2.30
2019-03-02T16:06:07.632Z,2.07
2019-03-02T16:08:54.137Z,2.27
2019-03-02T16:11:32.170Z,2.03
2019-03-02T16:14:11.127Z,2.03
2019-03-02T16:16:44.332Z,2.20
2019-03-02T16:19:30.546Z,2.33
2019-03-02T16:22:03.501Z,2.20
2019-03-02T16:24:45.192Z,2.70
2019-03-02T16:27:15.368Z,2.37
2019-03-02T16:29:48.667Z,2.87
2019-03-02T16:32:20.227Z,2.40
2019-03-02T16:34:59.900Z,2.80
2019-03-02T16:37:34.959Z,2.70
2019-03-02T16:40:23.056Z,3.13
2019-03-02T16:43:05.447Z,3.53
2019-03-02T16:45:41.289Z,2.90
2019-03-02T16:48:28.993Z,2.70
2019-03-02T16:51:08.500Z,2.43
2019-03-02T16:53:41.641Z,3.13
2019-03-02T16:56:21.287Z,3.10
2019-03-02T16:59:01.632Z,2.53
2019-03-02T17:01:31.788Z,3.10
2019-03-02T17:04:04.352Z,2.53
2019-03-02T17:06:37.584Z,2.73
2019-03-02T17:09:24.933Z,2.70
2019-03-02T17:12:04.397Z,3.03
2019-03-02T17:14:50.894Z,3.20
2019-03-02T17:17:29.769Z,3.17
2019-03-02T17:20:01.373Z,3.33
2019-03-02T17:22:32.646Z,3.30
2019-03-02T17:25:12.821Z,3.00
2019-03-02T17:27:45.860Z,3.17
2019-03-02T17:30:21.349Z,3.43
2019-03-02T17:32:51.062Z,3.50
2019-03-02T17:35:38.636Z,2.80
2019-03-02T17:38:23.969Z,2.93
2019-03-02T17:40:54.069Z,3.13
2019-03-02T17:43:24.146Z,3.00
2019-03-02T17:46:07.597Z,2.93
2019-03-02T17:48:38.165Z,2.97
2019-03-02T17:51:23.563Z,2.80
2019-03-02T17:53:59.806Z,2.90
2019-03-02T17:56:28.266Z,2.90
2019-03-02T17:59:04.180Z,2.77
2019-03-02T18:01:45.795Z,2.90
2019-03-02T18:04:21.956Z,2.47
2019-03-02T18:07:00.659Z,2.80
2019-03-02T18:09:30.744Z,2.80
2019-03-02T18:12:03.532Z,2.50
2019-03-02T18:14:51.963Z,2.87
2019-03-02T18:17:22.060Z,3.20
2019-03-02T18:19:50.512Z,2.57
2019-03-02T18:22:20.060Z,3.27
2019-03-02T18:24:48.796Z,3.30
2019-03-02T18:27:17.280Z,3.03
2019-03-02T18:29:45.728Z,3.60
2019-03-02T18:32:14.292Z,3.70
2019-03-02T18:34:42.891Z,3.33
2019-03-02T18:37:11.333Z,3.53
2019-03-02T18:39:39.897Z,3.63
2019-03-02T18:42:08.472Z,3.77
2019-03-02T18:44:36.929Z,3.33
2019-03-02T18:47:05.778Z,3.40
2019-03-02T18:49:36.594Z,3.30
2019-03-02T18:52:25.467Z,3.87
2019-03-02T18:54:53.933Z,4.23
2019-03-02T18:57:22.380Z,3.77
2019-03-02T18:59:51.137Z,3.67
2019-03-02T19:02:19.576Z,3.97
2019-03-02T19:04:48.110Z,4.30
2019-03-02T19:07:16.546Z,4.60
2019-03-02T19:09:45.255Z,5.00
2019-03-02T19:12:13.759Z,4.90
2019-03-02T19:14:42.215Z,5.20
2019-03-02T19:17:10.729Z,5.90
2019-03-02T19:19:39.185Z,5.50
2019-03-02T19:22:07.681Z,5.53
2019-03-02T19:24:36.165Z,5.33
2019-03-02T19:27:04.736Z,5.33
2019-03-02T19:29:33.188Z,5.33
2019-03-02T19:32:01.625Z,4.67
2019-03-02T19:34:30.088Z,4.97
2019-03-02T19:36:58.521Z,5.23
2019-03-02T19:39:26.954Z,4.63
2019-03-02T19:41:55.413Z,3.93
2019-03-02T19:44:23.913Z,4.73
2019-03-02T19:46:52.369Z,4.20
2019-03-02T19:49:23.485Z,4.67
2019-03-02T19:51:51.938Z,4.60
2019-03-02T19:54:20.373Z,4.23
2019-03-02T19:56:48.833Z,4.93
2019-03-02T19:59:17.265Z,4.47
2019-03-02T20:01:47.357Z,5.33
2019-03-02T20:04:15.913Z,5.53
2019-03-02T20:06:44.444Z,5.73
2019-03-02T20:09:13.042Z,6.40
2019-03-02T20:11:41.492Z,6.73
2019-03-02T20:14:09.926Z,5.43
2019-03-02T20:16:38.395Z,6.10
2019-03-02T20:19:07.009Z,6.80
2019-03-02T20:21:35.528Z,6.07
2019-03-02T20:24:06.363Z,5.83
2019-03-02T20:26:34.589Z,6.77
2019-03-02T20:29:03.044Z,6.13
2019-03-02T20:31:31.559Z,5.77
2019-03-02T20:34:00.018Z,4.67
2019-03-02T20:36:28.470Z,5.70
2019-03-02T20:38:56.996Z,5.20
2019-03-02T20:41:25.431Z,5.63
2019-03-02T20:43:53.884Z,4.70
2019-03-02T20:46:22.341Z,4.77
2019-03-02T20:48:50.844Z,4.80
2019-03-02T20:51:19.353Z,4.90
2019-03-02T20:53:47.817Z,5.50
2019-03-02T20:56:16.316Z,4.93
2019-03-02T20:58:44.764Z,4.77
2019-03-02T21:01:13.476Z,4.33
2019-03-02T21:03:42.028Z,5.40
2019-03-02T21:06:10.497Z,4.40
2019-03-02T21:08:38.949Z,4.60
2019-03-02T21:11:07.443Z,4.47
2019-03-02T21:13:35.890Z,5.10
2019-03-02T21:16:04.466Z,5.10
2019-03-02T21:18:32.974Z,5.50
2019-03-02T21:21:01.487Z,4.87
2019-03-02T21:23:29.931Z,5.40
2019-03-02T21:25:58.452Z,5.43
2019-03-02T21:28:26.884Z,5.43
2019-03-02T21:30:55.337Z,5.87
2019-03-02T21:33:23.769Z,5.37
2019-03-02T21:35:52.323Z,5.83
2019-03-02T21:38:20.766Z,5.57
2019-03-02T21:40:49.231Z,5.40
2019-03-02T21:43:17.815Z,6.00
2019-03-02T21:45:46.313Z,6.00
2019-03-02T21:48:15.144Z,5.83
2019-03-02T21:50:52.643Z,6.77
2019-03-02T21:53:21.081Z,6.43
2019-03-02T21:55:49.693Z,7.53
2019-03-02T21:58:18.197Z,7.37
2019-03-02T22:00:46.725Z,7.83
2019-03-02T22:03:15.269Z,6.93
2019-03-02T22:05:43.965Z,5.73
2019-03-02T22:08:12.414Z,6.33
2019-03-02T22:11:04.845Z,4.13
2019-03-02T22:13:33.361Z,5.20
2019-03-02T22:16:01.841Z,4.23
2019-03-02T22:18:30.277Z,3.43
2019-03-02T22:20:58.726Z,3.80
2019-03-02T22:23:27.164Z,4.00
2019-03-02T22:25:55.614Z,3.83
2019-03-02T22:28:24.111Z,3.60
2019-03-02T22:30:52.548Z,3.60
2019-03-02T22:33:21.009Z,2.70
2019-03-02T22:35:49.500Z,3.07
2019-03-02T22:38:17.948Z,3.80
2019-03-02T22:40:46.396Z,3.20
2019-03-02T22:43:14.841Z,3.50
2019-03-02T22:45:43.286Z,2.93
2019-03-02T22:48:11.736Z,2.70
2019-03-02T22:50:40.320Z,3.37
2019-03-02T22:53:08.925Z,2.47
2019-03-02T22:55:37.357Z,2.50
2019-03-02T22:58:05.868Z,3.63
2019-03-02T23:00:45.992Z,2.83
2019-03-02T23:03:13.380Z,3.00
2019-03-02T23:05:41.969Z,2.73
2019-03-02T23:08:10.553Z,2.40
2019-03-02T23:10:39.001Z,2.30
2019-03-02T23:13:07.431Z,2.87
2019-03-02T23:15:35.991Z,2.63
2019-03-02T23:18:04.576Z,2.20
2019-03-02T23:20:33.032Z,2.37
2019-03-02T23:23:01.463Z,2.07
2019-03-02T23:25:29.917Z,2.37
2019-03-02T23:27:58.361Z,2.10
2019-03-02T23:30:27.287Z,2.00
2019-03-02T23:32:55.798Z,2.17
2019-03-02T23:35:24.355Z,2.27
2019-03-02T23:37:52.949Z,1.90
2019-03-02T23:40:23.577Z,1.80
2019-03-02T23:42:52.171Z,2.30
2019-03-02T23:45:21.039Z,1.90
2019-03-02T23:47:49.624Z,1.90
2019-03-02T23:50:18.192Z,2.43
2019-03-02T23:52:46.737Z,1.87
2019-03-02T23:55:15.804Z,1.90
2019-03-02T23:57:44.551Z,2.10
